createdAt,value
2018-07-10T00:02:37.932Z,3.53
2018-07-10T00:06:17.389Z,3.60
2018-07-10T00:08:55.497Z,3.53
2018-07-10T00:11:29.337Z,2.40
2018-07-10T00:13:57.560Z,1.93
2018-07-10T00:16:25.812Z,6.33
2018-07-10T00:18:54.709Z,4.53
2018-07-10T00:21:22.989Z,5.43
2018-07-10T00:23:51.332Z,2.83
2018-07-10T00:26:19.545Z,3.90
2018-07-10T00:28:48.256Z,6.43
2018-07-10T00:31:17.668Z,3.47
2018-07-10T00:33:46.196Z,3.07
2018-07-10T00:36:14.646Z,4.80
2018-07-10T00:38:54.334Z,6.67
2018-07-10T00:41:24.821Z,3.73
2018-07-10T00:43:53.065Z,3.07
2018-07-10T00:46:22.154Z,4.27
2018-07-10T00:48:50.461Z,6.97
2018-07-10T00:51:18.856Z,3.87
2018-07-10T00:53:47.085Z,6.73
2018-07-10T00:56:15.425Z,8.60
2018-07-10T00:58:43.781Z,8.33
2018-07-10T01:01:12.049Z,4.20
2018-07-10T01:03:40.313Z,5.13
2018-07-10T01:06:08.593Z,4.93
2018-07-10T01:08:36.822Z,4.57
2018-07-10T01:11:12.099Z,5.40
2018-07-10T01:13:41.206Z,7.00
2018-07-10T01:16:09.465Z,8.20
2018-07-10T01:18:39.940Z,6.80
2018-07-10T01:21:09.109Z,2.80
2018-07-10T01:23:38.152Z,6.10
2018-07-10T01:26:06.416Z,6.97
2018-07-10T01:28:34.652Z,4.97
2018-07-10T01:31:03.325Z,3.47
2018-07-10T01:33:31.573Z,4.13
2018-07-10T01:36:02.654Z,5.73
2018-07-10T01:38:31.573Z,3.60
2018-07-10T01:40:59.808Z,2.87
2018-07-10T01:43:28.064Z,4.30
2018-07-10T01:45:56.738Z,4.07
2018-07-10T01:48:25.137Z,4.27
2018-07-10T01:50:53.637Z,6.27
2018-07-10T01:53:22.166Z,6.23
2018-07-10T01:55:50.417Z,5.30
2018-07-10T01:58:19.377Z,7.83
2018-07-10T02:00:47.616Z,5.67
2018-07-10T02:03:15.893Z,5.93
2018-07-10T02:05:44.193Z,5.47
2018-07-10T02:08:12.456Z,3.47
2018-07-10T02:10:40.705Z,4.10
2018-07-10T02:13:08.945Z,2.57
2018-07-10T02:15:37.196Z,5.03
2018-07-10T02:18:05.486Z,5.30
2018-07-10T02:20:47.332Z,3.37
2018-07-10T02:23:15.613Z,2.97
2018-07-10T02:25:43.863Z,4.23
2018-07-10T02:28:12.105Z,4.93
2018-07-10T02:30:40.405Z,2.97
2018-07-10T02:33:08.648Z,3.27
2018-07-10T02:35:36.893Z,4.73
2018-07-10T02:38:05.143Z,5.27
2018-07-10T02:40:34.042Z,3.87
2018-07-10T02:43:02.296Z,5.83
2018-07-10T02:45:30.637Z,4.13
2018-07-10T02:47:59.537Z,3.80
2018-07-10T02:50:27.809Z,2.67
2018-07-10T02:52:56.081Z,6.97
2018-07-10T02:55:24.797Z,4.20
2018-07-10T02:57:53.049Z,5.53
2018-07-10T03:00:21.682Z,2.77
2018-07-10T03:02:50.994Z,4.20
2018-07-10T03:05:20.729Z,5.00
2018-07-10T03:07:49.061Z,5.50
2018-07-10T03:10:17.377Z,4.20
2018-07-10T03:12:45.645Z,3.57
2018-07-10T03:15:14.901Z,4.07
2018-07-10T03:17:43.226Z,4.47
2018-07-10T03:20:11.849Z,5.40
2018-07-10T03:22:40.161Z,3.63
2018-07-10T03:25:09.073Z,6.80
2018-07-10T03:27:37.344Z,5.10
2018-07-10T03:30:05.645Z,5.07
2018-07-10T03:32:33.888Z,6.60
2018-07-10T03:35:02.133Z,5.57
2018-07-10T03:37:30.396Z,6.83
2018-07-10T03:39:58.654Z,3.97
2018-07-10T03:42:27.509Z,3.53
2018-07-10T03:44:56.262Z,4.97
2018-07-10T03:47:26.158Z,3.80
2018-07-10T03:49:57.461Z,5.40
2018-07-10T03:52:32.472Z,2.53
2018-07-10T03:55:02.891Z,3.80
2018-07-10T03:57:31.173Z,3.27
2018-07-10T04:00:03.910Z,7.33
2018-07-10T04:02:32.177Z,4.63
2018-07-10T04:05:00.602Z,3.77
2018-07-10T04:07:28.933Z,2.40
2018-07-10T04:09:57.505Z,1.90
2018-07-10T04:12:31.644Z,3.77
2018-07-10T04:15:00.193Z,2.80
2018-07-10T04:17:33.381Z,5.97
2018-07-10T04:20:01.640Z,4.30
2018-07-10T04:22:29.919Z,5.93
2018-07-10T04:24:59.546Z,7.83
2018-07-10T04:27:31.445Z,5.77
2018-07-10T04:30:07.746Z,5.40
2018-07-10T04:32:39.168Z,5.57
2018-07-10T04:35:08.156Z,4.07
2018-07-10T04:37:39.442Z,5.60
2018-07-10T04:40:07.717Z,8.53
2018-07-10T04:42:45.010Z,4.77
2018-07-10T04:45:14.536Z,9.67
2018-07-10T04:47:47.656Z,7.43
2018-07-10T04:50:24.620Z,3.83
2018-07-10T04:53:08.716Z,8.70
2018-07-10T04:55:39.433Z,3.67
2018-07-10T04:58:12.696Z,4.10
2018-07-10T05:00:46.094Z,5.40
2018-07-10T05:03:15.865Z,4.17
2018-07-10T05:05:44.797Z,6.83
2018-07-10T05:08:13.381Z,6.37
2018-07-10T05:10:42.479Z,5.73
2018-07-10T05:13:10.732Z,3.80
2018-07-10T05:15:39.357Z,8.40
2018-07-10T05:18:10.220Z,4.27
2018-07-10T05:20:41.371Z,5.57
2018-07-10T05:23:09.640Z,10.13
2018-07-10T05:25:38.965Z,5.83
2018-07-10T05:28:07.257Z,3.83
2018-07-10T05:30:36.517Z,5.50
2018-07-10T05:33:05.204Z,5.03
2018-07-10T05:35:33.479Z,3.10
2018-07-10T05:38:04.040Z,2.63
2018-07-10T05:40:32.309Z,16.40
2018-07-10T05:43:03.373Z,16.30
2018-07-10T05:45:31.630Z,6.17
2018-07-10T05:48:02.171Z,6.60
2018-07-10T05:50:31.405Z,3.40
2018-07-10T05:52:59.652Z,6.37
2018-07-10T05:55:29.916Z,4.30
2018-07-10T05:57:59.321Z,6.07
2018-07-10T06:00:27.865Z,6.00
2018-07-10T06:02:56.121Z,4.87
2018-07-10T06:05:24.832Z,6.23
2018-07-10T06:07:53.815Z,3.10
2018-07-10T06:10:23.032Z,14.73
2018-07-10T06:12:51.733Z,10.33
2018-07-10T06:15:20.006Z,4.17
2018-07-10T06:17:48.713Z,11.03
2018-07-10T06:20:16.958Z,6.17
2018-07-10T06:22:45.305Z,9.87
2018-07-10T06:25:13.581Z,5.03
2018-07-10T06:27:50.936Z,3.10
2018-07-10T06:30:19.278Z,3.30
2018-07-10T06:32:59.331Z,3.83
2018-07-10T06:36:32.846Z,6.20
2018-07-10T06:39:14.556Z,4.67
2018-07-10T06:41:50.054Z,4.03
2018-07-10T06:44:18.766Z,3.17
2018-07-10T06:46:59.016Z,3.43
2018-07-10T06:49:29.197Z,4.07
2018-07-10T06:52:18.652Z,3.77
2018-07-10T06:54:55.813Z,7.60
2018-07-10T06:57:30.857Z,3.73
2018-07-10T07:00:08.466Z,7.80
2018-07-10T07:02:38.173Z,7.77
2018-07-10T07:05:06.647Z,2.67
2018-07-10T07:07:36.208Z,6.37
2018-07-10T07:10:05.939Z,10.83
2018-07-10T07:12:35.028Z,9.40
2018-07-10T07:15:05.051Z,5.83
2018-07-10T07:17:33.960Z,3.43
2018-07-10T07:20:02.443Z,3.47
2018-07-10T07:22:31.965Z,10.40
2018-07-10T07:25:00.654Z,12.67
2018-07-10T07:27:28.964Z,8.80
2018-07-10T07:29:57.345Z,5.73
2018-07-10T07:32:26.340Z,11.87
2018-07-10T07:34:54.664Z,4.90
2018-07-10T07:37:22.988Z,6.50
2018-07-10T07:39:51.253Z,8.03
2018-07-10T07:42:19.529Z,10.17
2018-07-10T07:44:50.262Z,7.37
2018-07-10T07:47:21.166Z,12.73
2018-07-10T07:49:49.495Z,7.03
2018-07-10T07:52:18.375Z,5.43
2018-07-10T07:54:46.684Z,7.47
2018-07-10T07:57:15.485Z,6.43
2018-07-10T07:59:43.960Z,5.63
2018-07-10T08:02:12.273Z,7.03
2018-07-10T08:04:40.557Z,5.63
2018-07-10T08:07:09.366Z,5.43
2018-07-10T08:09:37.624Z,6.00
2018-07-10T08:12:05.918Z,6.93
2018-07-10T08:14:34.185Z,4.10
2018-07-10T08:17:02.465Z,9.93
2018-07-10T08:19:30.781Z,4.80
2018-07-10T08:21:59.117Z,4.77
2018-07-10T08:24:27.411Z,5.10
2018-07-10T08:26:57.593Z,4.43
2018-07-10T08:29:26.312Z,4.50
2018-07-10T08:31:54.900Z,4.93
2018-07-10T08:34:24.917Z,4.67
2018-07-10T08:36:53.522Z,6.87
2018-07-10T08:39:21.880Z,5.20
2018-07-10T08:41:50.229Z,4.63
2018-07-10T08:44:19.305Z,3.87
2018-07-10T08:46:49.675Z,5.03
2018-07-10T08:49:17.973Z,7.57
2018-07-10T08:51:50.821Z,7.57
2018-07-10T08:54:21.152Z,6.07
2018-07-10T08:56:49.485Z,6.00
2018-07-10T08:59:18.169Z,4.33
2018-07-10T09:01:47.740Z,4.87
2018-07-10T09:04:16.573Z,2.70
2018-07-10T09:06:44.953Z,7.83
2018-07-10T09:09:13.217Z,4.40
2018-07-10T09:11:42.255Z,2.97
2018-07-10T09:14:10.513Z,5.73
2018-07-10T09:16:38.765Z,7.60
2018-07-10T09:19:07.956Z,4.13
2018-07-10T09:21:36.236Z,9.30
2018-07-10T09:24:05.593Z,12.27
2018-07-10T09:26:34.873Z,8.87
2018-07-10T09:29:03.965Z,7.00
2018-07-10T09:31:33.988Z,3.67
2018-07-10T09:34:02.257Z,5.70
2018-07-10T09:36:30.580Z,8.53
2018-07-10T09:38:58.868Z,6.23
2018-07-10T09:41:28.221Z,5.50
2018-07-10T09:43:56.484Z,13.67
2018-07-10T09:46:27.843Z,5.87
2018-07-10T09:48:57.152Z,9.47
2018-07-10T09:51:25.428Z,12.33
2018-07-10T09:53:53.820Z,10.13
2018-07-10T09:56:22.081Z,11.73
2018-07-10T09:58:52.176Z,9.50
2018-07-10T10:01:26.614Z,10.13
2018-07-10T10:03:55.682Z,7.90
2018-07-10T10:06:24.905Z,6.33
2018-07-10T10:08:53.250Z,6.47
2018-07-10T10:11:21.518Z,5.80
2018-07-10T10:13:49.785Z,3.47
2018-07-10T10:16:18.056Z,7.43
2018-07-10T10:18:46.820Z,3.77
2018-07-10T10:21:15.093Z,2.83
2018-07-10T10:23:44.027Z,4.40
2018-07-10T10:26:13.864Z,5.83
2018-07-10T10:28:42.392Z,8.60
2018-07-10T10:31:10.693Z,5.77
2018-07-10T10:33:38.956Z,3.50
2018-07-10T10:36:07.296Z,7.53
2018-07-10T10:38:39.060Z,5.93
2018-07-10T10:41:07.317Z,5.30
2018-07-10T10:43:35.864Z,6.20
2018-07-10T10:46:04.121Z,6.77
2018-07-10T10:48:32.373Z,6.13
2018-07-10T10:51:01.065Z,4.17
2018-07-10T10:53:29.365Z,7.47
2018-07-10T10:55:57.621Z,5.07
2018-07-10T10:58:25.885Z,8.00
2018-07-10T11:00:54.145Z,5.23
2018-07-10T11:03:22.421Z,3.57
2018-07-10T11:05:50.704Z,10.63
2018-07-10T11:08:20.424Z,7.10
2018-07-10T11:10:48.665Z,13.93
2018-07-10T11:13:17.800Z,6.50
2018-07-10T11:15:48.057Z,4.17
2018-07-10T11:18:40.638Z,4.60
2018-07-10T11:21:19.725Z,3.20
2018-07-10T11:23:52.358Z,3.60
2018-07-10T11:26:42.868Z,3.40
2018-07-10T11:29:11.101Z,3.63
2018-07-10T11:31:39.624Z,8.10
2018-07-10T11:34:08.222Z,4.50
2018-07-10T11:36:36.913Z,2.23
2018-07-10T11:39:08.745Z,5.63
2018-07-10T11:41:44.944Z,3.17
2018-07-10T11:44:13.209Z,6.23
2018-07-10T11:46:41.422Z,5.03
2018-07-10T11:49:09.737Z,10.27
2018-07-10T11:51:38.007Z,3.97
2018-07-10T11:54:06.204Z,9.10
2018-07-10T11:56:34.444Z,7.63
2018-07-10T11:59:03.212Z,9.03
2018-07-10T12:01:33.112Z,9.67
2018-07-10T12:04:01.382Z,11.20
2018-07-10T12:06:29.608Z,7.30
2018-07-10T12:08:59.597Z,9.57
2018-07-10T12:11:30.557Z,10.30
2018-07-10T12:13:58.820Z,8.50
2018-07-10T12:16:27.089Z,6.43
2018-07-10T12:18:55.336Z,7.13
2018-07-10T12:21:23.597Z,7.77
2018-07-10T12:23:51.909Z,12.00
2018-07-10T12:26:20.220Z,14.93
2018-07-10T12:28:48.492Z,15.67
2018-07-10T12:31:16.745Z,8.87
2018-07-10T12:33:44.973Z,13.37
2018-07-10T12:36:13.201Z,9.87
2018-07-10T12:38:41.475Z,8.23
2018-07-10T12:41:09.700Z,16.80
2018-07-10T12:43:37.964Z,9.33
2018-07-10T12:46:06.213Z,13.50
2018-07-10T12:48:34.516Z,12.17
2018-07-10T12:51:03.109Z,9.27
2018-07-10T12:53:31.377Z,9.43
2018-07-10T12:56:00.693Z,11.60
2018-07-10T12:58:31.040Z,9.37
2018-07-10T13:00:59.859Z,10.37
2018-07-10T13:03:29.033Z,9.70
2018-07-10T13:05:58.256Z,7.63
2018-07-10T13:08:26.521Z,14.93
2018-07-10T13:10:54.753Z,9.60
2018-07-10T13:13:23.338Z,12.70
2018-07-10T13:15:51.608Z,11.43
2018-07-10T13:18:22.703Z,11.27
2018-07-10T13:20:51.460Z,12.33
2018-07-10T13:23:19.776Z,9.90
2018-07-10T13:25:48.044Z,13.13
2018-07-10T13:28:16.280Z,16.97
2018-07-10T13:30:45.352Z,14.77
2018-07-10T13:33:13.808Z,11.63
2018-07-10T13:35:42.125Z,10.57
2018-07-10T13:38:10.348Z,13.93
2018-07-10T13:40:39.044Z,9.57
2018-07-10T13:43:07.316Z,9.60
2018-07-10T13:45:35.560Z,7.60
2018-07-10T13:48:03.909Z,8.03
2018-07-10T13:50:34.148Z,9.97
2018-07-10T13:53:03.246Z,8.93
2018-07-10T13:55:32.077Z,8.33
2018-07-10T13:58:13.673Z,14.17
2018-07-10T14:00:47.719Z,14.43
2018-07-10T14:03:15.994Z,10.70
2018-07-10T14:05:44.385Z,8.47
2018-07-10T14:08:12.666Z,11.90
2018-07-10T14:10:41.044Z,8.77
2018-07-10T14:13:09.283Z,10.07
2018-07-10T14:15:37.531Z,10.83
2018-07-10T14:18:06.273Z,12.67
2018-07-10T14:20:51.718Z,11.93
2018-07-10T14:23:20.157Z,14.43
2018-07-10T14:25:48.665Z,11.97
2018-07-10T14:28:16.986Z,13.63
2018-07-10T14:30:45.245Z,12.50
2018-07-10T14:33:13.536Z,10.47
2018-07-10T14:35:42.316Z,9.27
2018-07-10T14:38:11.909Z,12.00
2018-07-10T14:40:44.210Z,13.10
2018-07-10T14:43:14.568Z,13.57
2018-07-10T14:45:42.853Z,10.73
2018-07-10T14:48:11.097Z,10.03
2018-07-10T14:50:39.346Z,7.97
2018-07-10T14:53:07.669Z,9.80
2018-07-10T14:55:35.940Z,12.63
2018-07-10T14:58:04.910Z,17.53
2018-07-10T15:00:33.201Z,10.20
2018-07-10T15:03:01.483Z,17.83
2018-07-10T15:05:29.706Z,13.17
2018-07-10T15:07:57.970Z,11.23
2018-07-10T15:10:26.160Z,11.90
2018-07-10T15:12:54.417Z,14.40
2018-07-10T15:15:22.780Z,9.63
2018-07-10T15:17:56.208Z,13.00
2018-07-10T15:20:25.037Z,9.13
2018-07-10T15:22:53.312Z,12.00
2018-07-10T15:25:21.584Z,14.17
2018-07-10T15:27:49.880Z,9.77
2018-07-10T15:30:18.384Z,12.40
2018-07-10T15:32:46.673Z,12.97
2018-07-10T15:35:14.937Z,15.20
2018-07-10T15:37:43.201Z,14.53
2018-07-10T15:40:11.477Z,15.90
2018-07-10T15:42:39.729Z,16.30
2018-07-10T15:45:08.006Z,17.40
2018-07-10T15:47:36.261Z,17.03
2018-07-10T15:50:04.535Z,12.10
2018-07-10T15:52:32.813Z,12.30
2018-07-10T15:55:01.073Z,13.93
2018-07-10T15:57:29.325Z,16.50
2018-07-10T15:59:57.540Z,16.87
2018-07-10T16:02:25.829Z,13.10
2018-07-10T16:04:54.470Z,11.73
2018-07-10T16:07:23.040Z,14.97
2018-07-10T16:09:52.064Z,9.93
2018-07-10T16:12:22.084Z,14.93
2018-07-10T16:14:51.504Z,14.93
2018-07-10T16:17:21.995Z,11.23
2018-07-10T16:19:51.883Z,12.17
2018-07-10T16:22:26.181Z,9.50
2018-07-10T16:25:34.846Z,9.70
2018-07-10T16:28:10.996Z,13.03
2018-07-10T16:30:39.289Z,12.83
2018-07-10T16:33:08.244Z,12.57
2018-07-10T16:35:36.549Z,9.80
2018-07-10T16:38:04.825Z,13.13
2018-07-10T16:40:33.108Z,10.57
2018-07-10T16:43:01.363Z,11.57
2018-07-10T16:45:39.849Z,11.50
2018-07-10T16:48:21.786Z,10.83
2018-07-10T16:50:58.567Z,12.17
2018-07-10T16:53:31.058Z,11.43
2018-07-10T16:55:59.332Z,13.17
2018-07-10T16:58:28.051Z,14.53
2018-07-10T17:00:57.457Z,11.20
2018-07-10T17:03:26.645Z,14.47
2018-07-10T17:05:54.900Z,12.97
2018-07-10T17:08:23.185Z,18.17
2018-07-10T17:10:51.488Z,14.13
2018-07-10T17:13:19.737Z,17.77
2018-07-10T17:15:48.025Z,12.80
2018-07-10T17:18:16.309Z,13.80
2018-07-10T17:20:44.581Z,11.50
2018-07-10T17:23:12.868Z,15.20
2018-07-10T17:25:41.124Z,13.33
2018-07-10T17:28:12.544Z,17.87
2018-07-10T17:30:41.482Z,14.87
2018-07-10T17:33:09.801Z,16.93
2018-07-10T17:35:37.996Z,20.47
2018-07-10T17:38:06.996Z,16.33
2018-07-10T17:40:35.317Z,16.30
2018-07-10T17:43:03.592Z,22.37
2018-07-10T17:45:31.913Z,15.67
2018-07-10T17:48:00.222Z,15.77
2018-07-10T17:50:28.499Z,13.13
2018-07-10T17:52:56.785Z,16.17
2018-07-10T17:55:25.108Z,17.60
2018-07-10T17:57:57.205Z,15.90
2018-07-10T18:00:25.445Z,14.17
2018-07-10T18:02:53.761Z,11.63
2018-07-10T18:05:22.069Z,13.17
2018-07-10T18:07:50.313Z,11.60
2018-07-10T18:10:18.691Z,10.13
2018-07-10T18:12:47.101Z,10.13
2018-07-10T18:15:15.356Z,10.80
2018-07-10T18:17:43.655Z,11.73
2018-07-10T18:20:11.949Z,11.90
2018-07-10T18:22:40.254Z,10.17
2018-07-10T18:25:08.480Z,11.33
2018-07-10T18:27:36.720Z,17.03
2018-07-10T18:30:04.953Z,14.27
2018-07-10T18:32:33.164Z,11.33
2018-07-10T18:35:01.421Z,13.60
2018-07-10T18:37:29.676Z,15.73
2018-07-10T18:39:57.933Z,12.10
2018-07-10T18:42:26.322Z,12.97
2018-07-10T18:44:54.730Z,11.90
2018-07-10T18:47:23.036Z,10.97
2018-07-10T18:49:53.137Z,12.50
2018-07-10T18:52:24.527Z,12.80
2018-07-10T18:54:52.797Z,15.47
2018-07-10T18:57:35.049Z,15.33
2018-07-10T19:00:05.525Z,12.03
2018-07-10T19:02:40.873Z,11.10
2018-07-10T19:05:09.156Z,11.30
2018-07-10T19:07:39.833Z,12.03
2018-07-10T19:10:08.150Z,12.60
2018-07-10T19:12:36.813Z,13.83
2018-07-10T19:15:05.061Z,11.83
2018-07-10T19:17:34.089Z,11.00
2018-07-10T19:20:04.816Z,11.53
2018-07-10T19:22:42.200Z,14.33
2018-07-10T19:25:10.529Z,15.60
2018-07-10T19:27:38.804Z,8.80
2018-07-10T19:30:08.417Z,13.77
2018-07-10T19:32:37.060Z,8.67
2018-07-10T19:35:05.401Z,12.63
2018-07-10T19:37:35.538Z,10.20
2018-07-10T19:40:03.841Z,11.57
2018-07-10T19:42:33.552Z,12.73
2018-07-10T19:45:02.993Z,8.53
2018-07-10T19:47:31.789Z,10.07
2018-07-10T19:50:06.450Z,9.97
2018-07-10T19:52:34.713Z,12.90
2018-07-10T19:55:03.377Z,10.23
2018-07-10T19:57:41.809Z,11.07
2018-07-10T20:00:10.068Z,10.60
2018-07-10T20:02:38.401Z,13.20
2018-07-10T20:05:12.084Z,11.43
2018-07-10T20:07:51.060Z,9.50
2018-07-10T20:10:26.814Z,10.00
2018-07-10T20:13:03.640Z,10.57
2018-07-10T20:15:46.245Z,10.63
2018-07-10T20:18:25.125Z,12.87
2018-07-10T20:21:00.305Z,13.67
2018-07-10T20:23:38.677Z,11.80
2018-07-10T20:27:02.034Z,13.43
2018-07-10T20:29:36.000Z,10.77
2018-07-10T20:32:07.126Z,13.60
2018-07-10T20:34:46.384Z,12.87
2018-07-10T20:37:22.022Z,12.20
2018-07-10T20:39:50.281Z,10.57
2018-07-10T20:42:19.374Z,9.50
2018-07-10T20:44:57.228Z,11.80
2018-07-10T20:47:26.637Z,12.97
2018-07-10T20:50:01.118Z,13.30
2018-07-10T20:52:36.663Z,9.83
2018-07-10T20:55:06.613Z,9.57
2018-07-10T20:57:40.005Z,11.57
2018-07-10T21:00:11.141Z,7.90
2018-07-10T21:04:59.645Z,7.80
2018-07-10T21:07:28.853Z,8.90
2018-07-10T21:10:04.792Z,8.60
2018-07-10T21:12:40.760Z,7.67
2018-07-10T21:15:14.374Z,6.70
2018-07-10T21:20:04.164Z,7.77
2018-07-10T21:24:48.364Z,9.40
2018-07-10T21:27:24.361Z,6.67
2018-07-10T21:30:01.655Z,7.03
2018-07-10T21:32:35.370Z,6.67
2018-07-10T21:35:07.165Z,5.07
2018-07-10T21:38:18.336Z,6.67
2018-07-10T21:43:01.105Z,4.17
2018-07-10T21:45:33.178Z,5.57
2018-07-10T21:48:11.421Z,5.70
2018-07-10T21:50:47.874Z,2.97
2018-07-10T21:53:16.229Z,3.57
2018-07-10T21:55:44.520Z,3.03
2018-07-10T21:58:12.794Z,4.00
2018-07-10T22:01:50.272Z,4.17
2018-07-10T22:04:20.693Z,5.87
2018-07-10T22:06:50.817Z,2.97
2018-07-10T22:09:19.402Z,3.17
2018-07-10T22:11:48.223Z,3.03
2018-07-10T22:14:16.924Z,3.17
2018-07-10T22:16:45.217Z,3.33
2018-07-10T22:19:14.118Z,5.03
2018-07-10T22:21:42.850Z,4.07
2018-07-10T22:24:11.141Z,4.83
2018-07-10T22:26:39.708Z,4.17
2018-07-10T22:29:07.952Z,2.80
2018-07-10T22:31:41.550Z,3.53
2018-07-10T22:34:09.764Z,3.43
2018-07-10T22:36:38.001Z,3.13
2018-07-10T22:39:06.704Z,3.10
2018-07-10T22:41:35.352Z,3.90
2018-07-10T22:44:03.881Z,2.53
2018-07-10T22:46:33.274Z,2.30
2018-07-10T22:49:05.460Z,2.47
2018-07-10T22:51:33.708Z,2.63
2018-07-10T22:54:02.861Z,3.03
2018-07-10T22:56:32.065Z,3.53
2018-07-10T22:59:00.661Z,3.73
2018-07-10T23:01:28.945Z,2.73
2018-07-10T23:03:57.228Z,5.40
2018-07-10T23:06:25.469Z,5.87
2018-07-10T23:08:54.229Z,3.27
2018-07-10T23:11:22.509Z,5.57
2018-07-10T23:13:50.776Z,5.00
2018-07-10T23:16:19.017Z,3.50
2018-07-10T23:18:48.004Z,3.30
2018-07-10T23:21:18.440Z,5.30
2018-07-10T23:23:47.121Z,3.67
2018-07-10T23:26:16.948Z,2.20
2018-07-10T23:28:46.152Z,4.97
2018-07-10T23:31:15.693Z,2.80
2018-07-10T23:33:44.916Z,2.60
2018-07-10T23:36:13.701Z,2.60
2018-07-10T23:38:51.848Z,2.70
2018-07-10T23:41:29.913Z,2.27
2018-07-10T23:43:58.905Z,2.63
2018-07-10T23:46:31.836Z,3.03
2018-07-10T23:49:07.904Z,2.67
2018-07-10T23:52:45.264Z,5.03
2018-07-10T23:55:13.512Z,2.30
2018-07-10T23:57:41.773Z,3.57
